Time;durP1;ratioP1;P1;durP2;ratioP2;P2;SDS_P1;SDS_P2;PMS_P1;PMS_P2;Temp;Humidity;BMP_temperature;BMP_pressure;BME280_temperature;BME280_humidity;BME280_pressure;Samples;Min_cycle;Max_cycle;Signal;HPM_P1;HPM_P2
2022/05/10 00:01:36;;;;;;;24.05;15.88;;;;;;;17.38;56.38;101909.59;5070606;28;20486;-65
2022/05/10 00:04:05;;;;;;;20.23;15.77;;;;;;;17.40;56.57;101907.59;5070425;28;20032;-65
2022/05/10 00:06:43;;;;;;;19.67;16.30;;;;;;;17.33;56.16;101884.00;5073103;28;20436;-65
2022/05/10 00:09:10;;;;;;;20.27;15.10;;;;;;;17.38;56.40;101903.31;5072760;28;20029;-65
2022/05/10 00:11:38;;;;;;;20.42;15.13;;;;;;;17.30;56.45;101901.22;5073350;28;20017;-65
2022/05/10 00:14:04;;;;;;;22.65;16.13;;;;;;;17.14;56.97;101898.78;5071731;28;20475;-65
2022/05/10 00:16:33;;;;;;;22.20;16.63;;;;;;;17.04;57.19;101892.41;5054672;28;20071;-65
2022/05/10 00:19:02;;;;;;;20.52;15.70;;;;;;;17.02;57.19;101895.19;5061108;28;20032;-65
2022/05/10 00:21:30;;;;;;;20.25;17.63;;;;;;;17.00;57.45;101880.13;5070530;28;20391;-65
2022/05/10 00:23:56;;;;;;;18.27;15.60;;;;;;;16.94;57.65;101884.16;5070769;28;20089;-65
2022/05/10 00:26:24;;;;;;;23.55;17.38;;;;;;;16.71;58.30;101884.94;5071902;28;20025;-65
2022/05/10 00:28:49;;;;;;;25.15;16.95;;;;;;;16.82;58.25;101879.66;5070761;28;20252;-65
2022/05/10 00:31:17;;;;;;;20.02;16.88;;;;;;;16.66;58.26;101882.56;5072530;28;20036;-65
2022/05/10 00:33:43;;;;;;;20.80;17.35;;;;;;;16.79;58.13;101872.72;5069829;28;20059;-65
2022/05/10 00:36:11;;;;;;;23.40;17.02;;;;;;;16.71;58.46;101880.44;5071952;28;20149;-65
2022/05/10 00:38:40;;;;;;;19.45;16.77;;;;;;;16.66;58.24;101853.03;5072145;28;20059;-65
2022/05/10 00:41:20;;;;;;;22.70;17.63;;;;;;;16.70;58.37;101869.78;5071635;28;20028;-65
2022/05/10 00:44:09;;;;;;;21.98;18.05;;;;;;;16.76;57.65;101877.41;5071941;28;20029;-65
2022/05/10 00:46:39;;;;;;;26.80;18.45;;;;;;;16.66;58.88;101871.84;5071427;28;20024;-65
2022/05/10 00:49:12;;;;;;;24.95;17.90;;;;;;;16.58;59.25;101874.22;5082875;28;20047;-65
2022/05/10 00:51:46;;;;;;;24.42;18.45;;;;;;;16.57;59.15;101867.97;5070960;28;20031;-65
2022/05/10 00:54:11;;;;;;;21.08;17.73;;;;;;;16.62;59.13;101864.97;5071536;28;20476;-65
2022/05/10 00:56:50;;;;;;;24.48;18.02;;;;;;;16.73;58.46;101869.56;5071730;28;20082;-64
2022/05/10 00:59:26;;;;;;;24.00;18.20;;;;;;;16.63;59.03;101863.16;5071809;28;20054;-65
2022/05/10 01:02:06;;;;;;;21.75;17.65;;;;;;;16.52;59.53;101859.38;5069735;28;20028;-65
2022/05/10 01:04:45;;;;;;;24.08;17.80;;;;;;;16.63;58.67;101855.94;5070202;28;20518;-65
2022/05/10 01:07:27;;;;;;;25.73;18.95;;;;;;;16.57;58.82;101857.25;5071703;28;20093;-67
2022/05/10 01:10:01;;;;;;;22.92;17.75;;;;;;;16.58;58.96;101850.88;5070567;28;20036;-65
2022/05/10 01:12:47;;;;;;;22.20;17.25;;;;;;;16.56;58.68;101852.84;5071514;28;20019;-65
2022/05/10 01:15:17;;;;;;;25.73;18.48;;;;;;;16.46;59.47;101848.25;5069575;28;20040;-65
2022/05/10 01:17:45;;;;;;;26.52;17.75;;;;;;;16.48;59.54;101849.00;5068512;28;20033;-65
2022/05/10 01:20:20;;;;;;;25.63;18.77;;;;;;;16.24;59.93;101840.88;5070494;28;20032;-65
2022/05/10 01:22:53;;;;;;;22.80;18.25;;;;;;;16.26;60.07;101844.28;5070212;28;20035;-65
2022/05/10 01:25:36;;;;;;;30.20;19.40;;;;;;;16.24;59.72;101835.50;5071108;28;20035;-65
2022/05/10 01:28:17;;;;;;;26.95;18.98;;;;;;;16.22;60.36;101838.28;5072001;28;20055;-65
2022/05/10 01:30:45;;;;;;;35.15;18.95;;;;;;;16.17;60.64;101839.56;5071818;28;20097;-65
2022/05/10 01:33:43;;;;;;;22.95;17.95;;;;;;;16.18;60.34;101830.53;5071902;28;20029;-65
2022/05/10 01:36:26;;;;;;;36.13;19.15;;;;;;;16.10;60.30;101823.91;5069212;28;20115;-65
2022/05/10 01:39:20;;;;;;;26.40;18.27;;;;;;;16.00;60.81;101825.53;5070357;28;20074;-65
2022/05/10 01:42:12;;;;;;;25.73;18.70;;;;;;;15.93;61.38;101824.22;5062396;28;20040;-65
2022/05/10 01:44:49;;;;;;;26.30;19.30;;;;;;;15.97;61.26;101824.88;5065060;28;20481;-65
2022/05/10 01:47:35;;;;;;;29.65;18.60;;;;;;;16.05;60.59;101819.84;5071905;28;20036;-65
2022/05/10 01:50:25;;;;;;;29.50;19.58;;;;;;;15.98;60.66;101805.16;5070407;28;20020;-65
2022/05/10 01:53:09;;;;;;;28.77;19.42;;;;;;;15.82;62.03;101813.38;5069361;28;20036;-65
2022/05/10 01:55:36;;;;;;;28.15;18.17;;;;;;;15.89;61.94;101809.34;5070035;28;20024;-65
2022/05/10 01:58:22;;;;;;;30.33;20.42;;;;;;;15.84;62.11;101800.75;5070814;28;20504;-65
2022/05/10 02:00:55;;;;;;;23.35;19.60;;;;;;;15.73;61.89;101797.94;5070197;28;20104;-65
2022/05/10 02:03:51;;;;;;;23.77;18.92;;;;;;;15.73;62.25;101801.47;5070024;28;20029;-65
2022/05/10 02:06:42;;;;;;;27.33;19.95;;;;;;;15.63;62.22;101801.22;5068463;28;20028;-65
2022/05/10 02:09:22;;;;;;;28.85;19.23;;;;;;;15.55;62.62;101800.03;5068227;28;20040;-65
2022/05/10 02:11:54;;;;;;;25.08;19.02;;;;;;;15.53;63.24;101797.47;5070671;28;20572;-65
2022/05/10 02:14:29;;;;;;;28.20;19.40;;;;;;;15.60;63.11;101787.19;5070624;28;20033;-65
2022/05/10 02:17:04;;;;;;;23.70;19.88;;;;;;;15.59;63.12;101794.38;5069945;28;20036;-65
2022/05/10 02:19:42;;;;;;;30.17;19.67;;;;;;;15.54;62.97;101788.47;5069882;28;20028;-65
2022/05/10 02:22:12;;;;;;;25.00;19.58;;;;;;;15.51;63.55;101788.69;5070180;28;20107;-65
2022/05/10 02:25:17;;;;;;;29.90;20.08;;;;;;;15.67;62.18;101785.78;5071228;28;20016;-65
2022/05/10 02:27:51;;;;;;;27.02;19.73;;;;;;;15.65;62.99;101780.53;5054044;28;20040;-65
2022/05/10 02:30:21;;;;;;;24.60;18.80;;;;;;;15.61;63.47;101776.34;5060422;28;20589;-65
2022/05/10 02:33:09;;;;;;;27.80;19.85;;;;;;;15.71;63.04;101781.97;5074247;28;20032;-65
2022/05/10 02:35:38;;;;;;;24.02;19.83;;;;;;;15.50;63.69;101770.88;5073226;28;20044;-65
2022/05/10 02:38:09;;;;;;;24.60;19.58;;;;;;;15.55;63.89;101768.72;5074459;28;20071;-65
2022/05/10 02:40:35;;;;;;;26.70;20.35;;;;;;;15.53;63.66;101754.59;5073409;28;20029;-65
2022/05/10 02:43:01;;;;;;;25.25;20.40;;;;;;;15.58;63.64;101765.81;5072848;28;20033;-65
2022/05/10 02:45:27;;;;;;;26.00;19.98;;;;;;;15.52;63.88;101765.41;5073593;28;20020;-65
2022/05/10 02:47:56;;;;;;;26.08;20.42;;;;;;;15.52;64.28;101770.75;5052046;28;20124;-65
2022/05/10 02:50:27;;;;;;;28.02;20.88;;;;;;;15.42;64.37;101766.03;5072143;28;20111;-65
2022/05/10 02:52:54;;;;;;;25.65;20.02;;;;;;;15.47;64.37;101760.38;5074708;28;20040;-65
2022/05/10 02:55:29;;;;;;;23.13;18.77;;;;;;;15.39;64.59;101758.22;5072955;28;20039;-65
2022/05/10 02:58:00;;;;;;;25.45;20.08;;;;;;;15.35;64.67;101755.81;5065689;28;20028;-65
2022/05/10 03:00:27;;;;;;;24.42;20.83;;;;;;;15.35;64.86;101746.00;5074279;28;20444;-65
2022/05/10 03:02:59;;;;;;;26.88;20.15;;;;;;;15.50;64.55;101753.91;5073365;28;20403;-65
2022/05/10 03:05:26;;;;;;;28.20;20.88;;;;;;;15.47;64.58;101748.75;5072931;28;20255;-65
2022/05/10 03:07:53;;;;;;;26.15;20.92;;;;;;;15.45;64.72;101740.84;5072669;28;20060;-65
2022/05/10 03:10:20;;;;;;;25.30;19.23;;;;;;;15.42;64.96;101744.59;5071754;28;20424;-65
2022/05/10 03:12:45;;;;;;;22.52;19.35;;;;;;;15.51;64.55;101734.19;5073581;28;20400;-65
2022/05/10 03:15:11;;;;;;;22.60;19.48;;;;;;;15.40;65.10;101729.56;5073460;28;20059;-65
2022/05/10 03:17:37;;;;;;;26.10;19.83;;;;;;;15.50;64.77;101730.66;5071984;28;20025;-65
2022/05/10 03:20:04;;;;;;;23.38;18.58;;;;;;;15.55;64.65;101731.19;5054581;28;20059;-65
2022/05/10 03:22:30;;;;;;;23.95;19.38;;;;;;;15.53;64.72;101725.09;5073313;28;20094;-65
2022/05/10 03:24:55;;;;;;;25.73;18.27;;;;;;;15.53;64.97;101721.53;5071397;28;20495;-65
2022/05/10 03:27:20;;;;;;;23.15;19.92;;;;;;;15.52;65.04;101727.84;5071819;28;20024;-65
2022/05/10 03:29:46;;;;;;;24.80;20.15;;;;;;;15.49;64.99;101723.56;5055419;28;20028;-65
2022/05/10 03:32:12;;;;;;;24.92;19.80;;;;;;;15.48;65.02;101721.00;5054098;28;20085;-65
2022/05/10 03:37:26;;;;;;;27.38;19.80;;;;;;;15.50;65.03;101721.72;5073604;28;20129;-65
2022/05/10 03:39:52;;;;;;;25.02;19.10;;;;;;;15.47;65.16;101713.91;5072737;28;20081;-65
2022/05/10 03:42:18;;;;;;;25.85;19.38;;;;;;;15.50;64.94;101717.25;5072686;28;20024;-65
2022/05/10 03:44:50;;;;;;;24.17;19.13;;;;;;;15.53;65.10;101713.47;5073900;28;20402;-65
2022/05/10 03:47:17;;;;;;;32.45;20.80;;;;;;;15.54;64.91;101712.53;5057849;28;20021;-65
2022/05/10 03:49:43;;;;;;;22.25;18.95;;;;;;;15.55;64.71;101703.50;5065345;28;20032;-65
2022/05/10 03:52:08;;;;;;;28.50;20.45;;;;;;;15.44;65.32;101706.94;5071847;28;20444;-65
2022/05/10 03:54:34;;;;;;;23.52;20.63;;;;;;;15.31;65.52;101706.94;5071214;28;20024;-65
2022/05/10 03:57:00;;;;;;;25.33;19.83;;;;;;;15.48;65.15;101702.25;5070855;28;20078;-65
2022/05/10 03:59:26;;;;;;;26.13;20.17;;;;;;;15.41;65.16;101708.03;5072060;28;20064;-65
2022/05/10 04:01:51;;;;;;;27.80;20.42;;;;;;;15.34;65.65;101706.72;5072222;28;20479;-65
2022/05/10 04:04:17;;;;;;;25.35;19.52;;;;;;;15.33;65.62;101698.81;5070959;28;20037;-65
2022/05/10 04:06:45;;;;;;;24.65;21.05;;;;;;;15.32;65.55;101703.28;5076932;28;20036;-65
2022/05/10 04:09:11;;;;;;;32.88;20.48;;;;;;;15.41;65.30;101702.66;5075114;28;20033;-65
2022/05/10 04:11:36;;;;;;;28.00;21.75;;;;;;;15.37;65.13;101690.44;5070996;28;20074;-65
2022/05/10 04:14:03;;;;;;;29.15;21.30;;;;;;;15.43;65.40;101702.56;5070039;28;20036;-65
2022/05/10 04:16:28;;;;;;;24.92;20.38;;;;;;;15.45;64.93;101695.25;5071792;28;20081;-65
2022/05/10 04:18:54;;;;;;;28.15;20.52;;;;;;;15.43;65.21;101694.50;5071639;28;20036;-65
2022/05/10 04:21:20;;;;;;;27.10;20.77;;;;;;;15.40;64.54;101698.25;5070494;28;20040;-65
2022/05/10 04:23:46;;;;;;;27.00;20.63;;;;;;;15.42;65.28;101695.47;5072786;28;20067;-65
2022/05/10 04:26:14;;;;;;;27.10;20.25;;;;;;;15.53;64.99;101692.91;5070214;28;20021;-65
2022/05/10 04:28:44;;;;;;;29.37;20.67;;;;;;;15.53;65.50;101692.91;5073070;28;20036;-65
2022/05/10 04:31:10;;;;;;;26.77;21.95;;;;;;;15.52;64.37;101690.31;5070696;28;20283;-65
2022/05/10 04:33:36;;;;;;;28.23;20.08;;;;;;;15.60;64.61;101691.50;5071283;28;20056;-65
2022/05/10 04:36:01;;;;;;;29.00;21.10;;;;;;;15.52;64.20;101693.84;5068931;28;20775;-65
2022/05/10 04:38:27;;;;;;;28.45;21.10;;;;;;;15.55;64.05;101688.28;5071660;28;20020;-65
2022/05/10 04:43:38;;;;;;;29.77;20.85;;;;;;;15.61;63.85;101687.00;5072368;28;20392;-65
2022/05/10 04:46:06;;;;;;;29.65;20.35;;;;;;;15.51;65.25;101681.44;5052949;28;20021;-65
2022/05/10 04:48:33;;;;;;;29.70;20.27;;;;;;;15.63;64.41;101682.38;5054717;28;20028;-65
2022/05/10 04:51:00;;;;;;;26.95;20.33;;;;;;;15.71;63.89;101684.56;5070728;28;20020;-65
2022/05/10 04:53:26;;;;;;;32.05;20.38;;;;;;;15.69;63.57;101683.81;5070187;28;20059;-65
2022/05/10 04:55:52;;;;;;;23.80;19.65;;;;;;;15.74;64.23;101681.66;5070344;28;20471;-65
2022/05/10 04:58:18;;;;;;;32.95;19.83;;;;;;;15.84;62.39;101680.88;5072230;28;20041;-65
2022/05/10 05:00:43;;;;;;;24.55;18.48;;;;;;;15.85;61.90;101676.34;5071263;28;20537;-65
2022/05/10 05:03:09;;;;;;;27.85;20.17;;;;;;;15.95;62.03;101677.44;5069914;28;20036;-65
2022/05/10 05:05:34;;;;;;;25.83;19.92;;;;;;;15.98;61.98;101677.19;5070586;28;20033;-65
2022/05/10 05:08:00;;;;;;;29.73;19.70;;;;;;;16.05;61.57;101682.97;5070793;28;20040;-65
2022/05/10 05:10:28;;;;;;;24.88;19.65;;;;;;;16.11;61.29;101679.84;5071549;28;20551;-65
2022/05/10 05:12:53;;;;;;;23.73;18.10;;;;;;;16.15;61.61;101685.84;5070547;28;20121;-65
2022/05/10 05:15:21;;;;;;;24.23;18.63;;;;;;;16.18;61.77;101683.81;5070498;28;20283;-65
2022/05/10 05:17:49;;;;;;;26.33;17.83;;;;;;;16.20;61.39;101681.84;5071633;28;20123;-65
2022/05/10 05:20:15;;;;;;;24.15;18.38;;;;;;;16.18;61.51;101669.50;5070913;28;20028;-65
2022/05/10 05:22:40;;;;;;;27.00;17.90;;;;;;;16.27;61.61;101685.81;5071615;28;20031;-65
2022/05/10 05:25:07;;;;;;;25.77;16.98;;;;;;;16.28;61.40;101683.97;5053055;28;20037;-65
2022/05/10 05:27:33;;;;;;;26.30;17.90;;;;;;;16.32;61.98;101689.03;5071609;28;20059;-65
2022/05/10 05:29:59;;;;;;;22.27;17.23;;;;;;;16.36;61.45;101686.97;5052483;28;20118;-65
2022/05/10 05:32:29;;;;;;;20.73;17.00;;;;;;;16.41;61.72;101691.97;5069822;28;20494;-67
2022/05/10 05:35:00;;;;;;;21.40;16.95;;;;;;;16.40;61.40;101696.47;5071206;28;20024;-65
2022/05/10 05:37:35;;;;;;;25.45;17.20;;;;;;;16.41;61.51;101686.59;5071367;28;20119;-65
2022/05/10 05:40:07;;;;;;;24.08;16.95;;;;;;;16.39;61.40;101680.50;5070551;28;20024;-65
2022/05/10 05:42:33;;;;;;;21.73;17.67;;;;;;;16.44;61.40;101689.06;5069203;28;20062;-65
2022/05/10 05:45:02;;;;;;;19.33;17.33;;;;;;;16.31;61.86;101665.81;5070681;28;20531;-65
2022/05/10 05:47:28;;;;;;;21.00;16.80;;;;;;;16.45;61.85;101686.28;5070346;28;20024;-65
2022/05/10 05:49:53;;;;;;;19.15;16.95;;;;;;;16.51;61.80;101684.97;5070301;28;20456;-65
2022/05/10 05:52:21;;;;;;;18.05;15.90;;;;;;;16.56;61.77;101683.66;5068605;28;20047;-65
2022/05/10 05:54:48;;;;;;;23.60;18.05;;;;;;;16.60;61.54;101681.56;5068116;28;20510;-65
2022/05/10 05:57:14;;;;;;;21.67;16.77;;;;;;;16.60;61.81;101670.84;5069773;28;20450;-65
2022/05/10 05:59:42;;;;;;;18.52;16.27;;;;;;;16.70;61.66;101671.00;5070244;28;20028;-65
2022/05/10 06:02:13;;;;;;;22.17;17.38;;;;;;;16.74;61.24;101667.13;5069824;28;20032;-65
2022/05/10 06:04:39;;;;;;;21.42;16.77;;;;;;;16.69;61.53;101645.97;5070003;28;20056;-65
2022/05/10 06:07:09;;;;;;;17.05;14.43;;;;;;;16.80;61.56;101662.16;5069918;28;20078;-65
2022/05/10 06:09:35;;;;;;;20.75;15.18;;;;;;;16.68;61.35;101641.56;5070379;28;20032;-65
2022/05/10 06:12:01;;;;;;;23.10;15.43;;;;;;;16.88;61.03;101669.59;5069191;28;20476;-65
2022/05/10 06:14:29;;;;;;;18.10;15.02;;;;;;;16.96;62.84;101675.25;5070396;28;20023;-65
2022/05/10 06:16:56;;;;;;;18.70;13.88;;;;;;;17.03;61.49;101668.44;5085526;28;20458;-65
2022/05/10 06:19:22;;;;;;;19.20;13.95;;;;;;;17.10;60.96;101674.19;5069952;28;20029;-65
2022/05/10 06:21:48;;;;;;;17.48;13.52;;;;;;;17.14;60.91;101659.53;5069967;28;20036;-65
2022/05/10 06:24:13;;;;;;;15.10;12.60;;;;;;;17.25;60.86;101661.41;5069613;28;20036;-65
2022/05/10 06:26:39;;;;;;;19.73;12.70;;;;;;;17.35;60.25;101665.06;5068369;28;20040;-65
2022/05/10 06:29:07;;;;;;;20.77;12.75;;;;;;;17.40;60.63;101667.41;5068910;28;20031;-65
2022/05/10 06:31:33;;;;;;;18.25;13.25;;;;;;;17.47;60.28;101661.44;5069792;28;20036;-65
2022/05/10 06:33:58;;;;;;;18.45;12.27;;;;;;;17.52;60.23;101657.50;5067584;28;20032;-65
2022/05/10 06:36:23;;;;;;;15.60;11.77;;;;;;;17.62;60.28;101658.50;5069750;28;20102;-65
2022/05/10 06:38:50;;;;;;;16.70;11.77;;;;;;;17.70;59.59;101664.09;5051038;28;20064;-65
2022/05/10 06:41:16;;;;;;;13.27;11.52;;;;;;;17.73;59.85;101657.63;5069586;28;20031;-65
2022/05/10 06:43:41;;;;;;;16.77;11.35;;;;;;;17.78;59.57;101653.63;5068087;28;20037;-66
2022/05/10 06:46:15;;;;;;;20.85;11.40;;;;;;;17.86;59.69;101659.25;5052381;28;20032;-66
2022/05/10 06:48:46;;;;;;;13.18;11.07;;;;;;;17.91;59.41;101656.16;5070190;28;20271;-65
2022/05/10 06:51:14;;;;;;;14.23;10.65;;;;;;;17.98;59.56;101649.31;5069513;28;20052;-65
2022/05/10 06:53:40;;;;;;;16.13;10.45;;;;;;;18.06;58.84;101656.75;5070279;28;20032;-65
2022/05/10 06:56:06;;;;;;;20.30;11.30;;;;;;;18.12;58.89;101651.72;5068858;28;20020;-65
2022/05/10 06:58:32;;;;;;;16.90;10.02;;;;;;;18.17;58.96;101652.19;5070394;28;20078;-65
2022/05/10 07:00:59;;;;;;;19.27;9.68;;;;;;;18.21;59.40;101650.13;5069170;28;20055;-65
2022/05/10 07:03:33;;;;;;;19.00;10.25;;;;;;;18.35;58.51;101654.34;5067971;28;20110;-65
2022/05/10 07:06:04;;;;;;;19.92;10.48;;;;;;;18.42;58.61;101652.88;5069947;28;20069;-65
2022/05/10 07:08:30;;;;;;;14.57;10.38;;;;;;;18.52;58.47;101644.88;5069707;28;20052;-65
2022/05/10 07:10:56;;;;;;;18.52;9.45;;;;;;;18.63;58.05;101642.13;5069957;28;20023;-65
2022/05/10 07:13:24;;;;;;;17.05;10.18;;;;;;;18.74;58.13;101644.81;5069978;28;20032;-65
2022/05/10 07:15:50;;;;;;;19.70;9.67;;;;;;;18.78;57.75;101638.16;5073746;28;20031;-65
2022/05/10 07:18:17;;;;;;;12.20;9.45;;;;;;;18.89;57.10;101637.25;5073673;28;20081;-65
2022/05/10 07:20:44;;;;;;;12.95;8.77;;;;;;;18.97;57.22;101634.75;5072037;28;20072;-65
2022/05/10 07:23:10;;;;;;;17.15;8.98;;;;;;;18.99;56.33;101632.75;5056117;28;20432;-65
2022/05/10 07:25:36;;;;;;;13.02;8.90;;;;;;;19.11;56.30;101636.22;5072000;28;20490;-65
2022/05/10 07:28:03;;;;;;;12.63;8.70;;;;;;;19.33;56.55;101623.59;5068691;28;20174;-65
2022/05/10 07:30:30;;;;;;;10.50;8.38;;;;;;;19.39;55.24;101623.06;5073720;28;20023;-65
2022/05/10 07:32:58;;;;;;;14.18;8.98;;;;;;;19.47;55.36;101626.78;5073416;28;20081;-65
2022/05/10 07:38:11;;;;;;;11.18;8.20;;;;;;;19.55;55.36;101615.28;5074032;28;20451;-65
2022/05/10 07:40:37;;;;;;;9.75;7.95;;;;;;;19.64;54.82;101625.25;5073628;28;20031;-65
2022/05/10 07:43:05;;;;;;;8.40;7.53;;;;;;;19.64;55.18;101619.88;5072465;28;20025;-65
2022/05/10 07:45:32;;;;;;;11.07;8.48;;;;;;;19.60;53.95;101606.81;5073711;28;20025;-65
2022/05/10 07:47:58;;;;;;;13.52;8.18;;;;;;;19.83;54.11;101620.97;5074151;28;20081;-65
2022/05/10 07:50:23;;;;;;;12.77;7.85;;;;;;;19.93;53.34;101614.59;5072394;28;20111;-65
2022/05/10 07:52:49;;;;;;;12.43;7.78;;;;;;;20.04;53.32;101610.06;5073415;28;20031;-65
2022/05/10 07:55:14;;;;;;;8.40;7.05;;;;;;;20.11;53.54;101613.91;5071904;28;20028;-65
2022/05/10 07:57:43;;;;;;;16.35;7.53;;;;;;;20.15;52.65;101605.41;5072209;28;20398;-65
2022/05/10 08:00:13;;;;;;;12.20;6.80;;;;;;;20.19;51.95;101609.50;5073266;28;20020;-65
2022/05/10 08:02:42;;;;;;;13.02;6.90;;;;;;;20.32;52.15;101616.47;5073636;28;20028;-65
2022/05/10 08:05:09;;;;;;;11.45;7.25;;;;;;;20.35;51.22;101608.97;5071612;28;20075;-65
2022/05/10 08:07:35;;;;;;;8.90;7.38;;;;;;;20.40;50.56;101611.22;5073106;28;20059;-65
2022/05/10 08:10:01;;;;;;;12.05;7.10;;;;;;;20.57;51.74;101613.25;5073166;28;20379;-65
2022/05/10 08:12:29;;;;;;;12.63;7.70;;;;;;;20.54;51.70;101612.69;5055812;28;20036;-65
2022/05/10 08:14:54;;;;;;;9.60;6.72;;;;;;;20.61;50.68;101621.91;5071751;28;20028;-65
2022/05/10 08:17:20;;;;;;;9.95;7.35;;;;;;;20.59;50.35;101613.97;5072140;28;20392;-65
2022/05/10 08:19:46;;;;;;;14.57;7.40;;;;;;;20.59;50.56;101610.41;5054982;28;20562;-65
2022/05/10 08:22:11;;;;;;;13.50;7.28;;;;;;;20.54;51.18;101604.59;5072850;28;20046;-65
2022/05/10 08:24:37;;;;;;;10.15;6.93;;;;;;;20.69;50.91;101616.66;5072755;28;20489;-65
2022/05/10 08:27:02;;;;;;;8.98;7.00;;;;;;;20.67;50.88;101602.41;5072978;28;20020;-66
2022/05/10 08:29:28;;;;;;;8.23;6.22;;;;;;;20.67;51.20;101606.97;5071044;28;20033;-65
2022/05/10 08:31:53;;;;;;;8.75;6.38;;;;;;;20.59;50.41;101605.00;5072838;28;20028;-65
2022/05/10 08:34:19;;;;;;;11.40;7.10;;;;;;;20.56;50.85;101594.47;5071179;28;20070;-65
2022/05/10 08:36:46;;;;;;;13.38;6.50;;;;;;;20.56;50.51;101599.88;5072689;28;20054;-65
2022/05/10 08:39:12;;;;;;;11.85;7.35;;;;;;;20.55;50.37;101595.47;5072862;28;20052;-65
2022/05/10 08:42:10;;;;;;;10.48;6.63;;;;;;;20.61;50.40;101595.72;5071828;28;20491;-65
2022/05/10 08:44:40;;;;;;;15.02;6.78;;;;;;;20.62;50.75;101596.63;5072222;28;20068;-65
2022/05/10 08:47:07;;;;;;;8.60;6.60;;;;;;;20.58;49.87;101589.78;5072727;28;20031;-66
2022/05/10 08:49:43;;;;;;;8.18;6.13;;;;;;;20.64;50.08;101584.63;5072172;28;20103;-65
2022/05/10 08:52:11;;;;;;;11.93;6.50;;;;;;;20.74;50.11;101591.91;5072430;28;20051;-66
2022/05/10 08:54:38;;;;;;;12.98;6.80;;;;;;;20.77;50.01;101583.50;5071418;28;20032;-65
2022/05/10 08:57:15;;;;;;;14.05;6.32;;;;;;;20.85;49.41;101576.38;5072726;28;20435;-65
2022/05/10 09:00:10;;;;;;;6.70;5.45;;;;;;;20.97;50.43;101582.47;5070959;28;20036;-65
2022/05/10 09:02:54;;;;;;;11.55;6.13;;;;;;;21.07;48.96;101583.28;5071050;28;20028;-65
2022/05/10 09:05:33;;;;;;;9.60;6.05;;;;;;;21.35;48.76;101579.75;5087023;28;20021;-65
2022/05/10 09:08:04;;;;;;;9.32;5.65;;;;;;;21.52;47.87;101582.53;5072189;28;20044;-65
2022/05/10 09:10:58;;;;;;;7.07;6.38;;;;;;;21.66;48.52;101580.34;5070878;28;20024;-66
2022/05/10 09:13:26;;;;;;;6.85;5.72;;;;;;;21.78;47.10;101576.41;5070681;28;20177;-65
2022/05/10 09:16:03;;;;;;;8.07;6.38;;;;;;;21.91;47.34;101576.91;5070116;28;20141;-65
2022/05/10 09:18:41;;;;;;;9.85;5.90;;;;;;;22.13;46.78;101570.19;5070684;28;20248;-66
2022/05/10 09:21:17;;;;;;;13.63;6.32;;;;;;;22.11;46.69;101574.88;5069895;28;20087;-66
2022/05/10 09:24:06;;;;;;;12.07;6.90;;;;;;;22.15;46.52;101573.59;5071979;28;20032;-66
2022/05/10 09:26:43;;;;;;;8.00;6.15;;;;;;;22.26;45.99;101560.84;5072222;28;20044;-66
2022/05/10 09:29:18;;;;;;;9.02;5.75;;;;;;;22.30;45.71;101573.09;5070608;28;20036;-66
2022/05/10 09:34:46;;;;;;;9.38;5.82;;;;;;;22.44;45.84;101565.25;5071228;28;20024;-65
2022/05/10 09:37:31;;;;;;;10.15;6.40;;;;;;;22.50;46.21;101562.91;5069187;28;20036;-65
2022/05/10 09:39:57;;;;;;;12.27;6.00;;;;;;;22.54;45.93;101559.72;5071304;28;20036;-65
2022/05/10 09:42:38;;;;;;;8.57;6.18;;;;;;;22.64;45.87;101559.63;5071968;28;20476;-66
2022/05/10 09:45:06;;;;;;;8.20;6.00;;;;;;;22.60;45.24;101555.53;5071831;28;20020;-66
2022/05/10 09:47:32;;;;;;;8.75;6.10;;;;;;;22.56;45.46;101562.25;5071897;28;20024;-66
2022/05/10 09:50:18;;;;;;;9.48;6.72;;;;;;;22.60;45.87;101559.09;5086776;28;20025;-66
2022/05/10 09:52:45;;;;;;;8.77;6.70;;;;;;;22.66;45.48;101552.19;5071702;28;20142;-66
2022/05/10 09:55:25;;;;;;;9.43;6.07;;;;;;;22.87;44.96;101546.38;5071853;28;20016;-66
2022/05/10 09:57:50;;;;;;;7.93;6.47;;;;;;;23.18;44.73;101548.63;5070387;28;20036;-66
2022/05/10 10:00:36;;;;;;;11.25;5.35;;;;;;;23.50;44.38;101543.34;5069785;28;20177;-65
2022/05/10 10:03:02;;;;;;;11.65;7.05;;;;;;;23.62;43.10;101514.03;5071307;28;20036;-66
2022/05/10 10:05:35;;;;;;;13.77;6.47;;;;;;;23.71;43.55;101537.50;5052643;28;20024;-66
2022/05/10 10:08:00;;;;;;;8.18;6.15;;;;;;;23.84;42.41;101522.56;5069955;28;20056;-66
2022/05/10 10:10:31;;;;;;;12.77;5.97;;;;;;;24.00;42.74;101523.47;5071222;28;20029;-66
2022/05/10 10:12:58;;;;;;;8.95;6.15;;;;;;;24.14;41.74;101512.91;5070162;28;20107;-66
2022/05/10 10:15:38;;;;;;;7.00;5.38;;;;;;;24.26;41.15;101530.59;5070178;28;20031;-66
2022/05/10 10:18:09;;;;;;;10.90;5.07;;;;;;;24.43;40.55;101518.72;5069752;28;20028;-66
2022/05/10 10:20:40;;;;;;;12.27;5.78;;;;;;;24.75;39.88;101518.84;5070911;28;20028;-66
2022/05/10 10:23:19;;;;;;;10.57;4.65;;;;;;;25.11;39.57;101522.81;5070101;28;20032;-66
2022/05/10 10:25:47;;;;;;;14.82;5.25;;;;;;;25.33;37.68;101514.94;5071306;28;20025;-66
2022/05/10 10:28:16;;;;;;;19.88;5.38;;;;;;;25.39;37.94;101516.97;5070584;28;20527;-66
2022/05/10 10:30:59;;;;;;;12.40;5.28;;;;;;;25.50;38.09;101510.25;5070040;28;20028;-66
2022/05/10 10:33:45;;;;;;;23.27;5.57;;;;;;;25.67;37.39;101516.47;5071420;28;20495;-66
2022/05/10 10:36:19;;;;;;;9.82;4.78;;;;;;;25.75;37.06;101522.72;5071308;28;20017;-66
2022/05/10 10:39:23;;;;;;;15.68;5.40;;;;;;;26.00;36.91;101503.47;5086695;28;20556;-66
2022/05/10 10:41:59;;;;;;;14.90;5.10;;;;;;;26.13;36.59;101511.06;5069960;28;20020;-66
2022/05/10 10:44:28;;;;;;;27.17;5.28;;;;;;;26.18;35.97;101503.19;5071291;28;20145;-66
2022/05/10 10:47:01;;;;;;;21.48;5.50;;;;;;;26.34;36.58;101510.38;5070775;28;20086;-66
2022/05/10 10:50:01;;;;;;;26.40;6.05;;;;;;;26.25;35.47;101521.34;5072694;28;20025;-66
2022/05/10 10:52:29;;;;;;;19.00;5.45;;;;;;;25.87;35.90;101512.28;5075217;28;20100;-66
2022/05/10 10:54:55;;;;;;;20.65;6.20;;;;;;;25.71;35.70;101504.19;5041020;28;20024;-66
2022/05/10 10:57:37;;;;;;;33.08;6.18;;;;;;;25.78;36.45;101505.16;5074914;28;20400;-66
2022/05/10 11:00:05;;;;;;;27.83;6.10;;;;;;;25.50;36.81;101504.78;5074873;28;20407;-66
2022/05/10 11:03:38;;;;;;;19.02;6.13;;;;;;;25.40;37.11;101499.59;5073447;28;20025;-66
2022/05/10 11:06:13;;;;;;;15.48;5.65;;;;;;;25.40;36.61;101485.97;4986745;28;20046;-66
2022/05/10 11:08:53;;;;;;;17.63;5.80;;;;;;;25.33;36.93;101476.81;5062671;28;20110;-66
2022/05/10 11:11:40;;;;;;;15.80;5.55;;;;;;;25.33;37.20;101483.13;5074323;28;20161;-66
2022/05/10 11:14:39;;;;;;;13.13;5.32;;;;;;;25.30;36.88;101480.75;5072149;28;20028;-66
2022/05/10 11:17:30;;;;;;;18.17;5.13;;;;;;;25.07;37.14;101477.06;5072083;28;20024;-66
2022/05/10 11:20:13;;;;;;;11.25;5.28;;;;;;;24.93;37.51;101482.22;5072536;28;20028;-66
2022/05/10 11:22:58;;;;;;;18.17;5.60;;;;;;;24.93;37.50;101465.88;5072525;28;20043;-66
2022/05/10 11:25:46;;;;;;;21.23;5.75;;;;;;;24.84;37.86;101466.94;5073229;28;20127;-66
2022/05/10 11:28:44;;;;;;;17.27;5.68;;;;;;;25.07;37.70;101472.47;5070531;28;20066;-66
2022/05/10 11:31:20;;;;;;;16.63;5.63;;;;;;;25.33;37.62;101465.94;5064058;28;20028;-66
2022/05/10 11:33:50;;;;;;;14.75;5.65;;;;;;;25.58;37.01;101470.19;5073165;28;20032;-66
2022/05/10 11:36:34;;;;;;;15.75;5.43;;;;;;;25.60;37.49;101467.28;5072217;28;20025;-66
2022/05/10 11:39:02;;;;;;;16.70;5.10;;;;;;;25.71;37.66;101455.13;5072926;28;20531;-66
2022/05/10 11:41:45;;;;;;;12.85;6.00;;;;;;;25.72;36.55;101448.66;5073043;28;20379;-66
2022/05/10 11:44:40;;;;;;;16.98;5.43;;;;;;;25.46;37.62;101451.72;5072091;28;20096;-66
2022/05/10 11:47:20;;;;;;;11.60;5.68;;;;;;;25.43;37.63;101450.19;5071653;28;20024;-66